Yuma, AZ

9:21 AM MST on January 29, 2015 (GMT -0700)
Yuma Marine Corps Air Station | Change Station
CLOSE
Current Station
Airport
Location: Yuma MCAS,
Elevation: 213 ft
Nearby Weather Stations

Elev 213 ft 32.66 °N, 114.61 °W | Updated 24 minutes ago

Overcast
Overcast
64 °F
Feels Like 64 °F
N
7
Wind Variable Wind from North

Today
High -- | Low -- °F
--% Chance of Precip.
Yesterday
High -- | Low -- °F
Precip. -- in
7:35 AM 6:08 PM
Waxing Gibbous, 75% visible
Pressure 30.07 in
Visibility 10.0 miles
Clouds Few 4000 ft
Mostly Cloudy 12000 ft
Overcast 20000 ft
Dew Point 48 °F
Humidity 56%
Rainfall 0.00 in
Snow Depth Not available.
UV 0 out of 12
Pollen 5.70 out of 12
Air Quality Not available.
Flu Activity Not available.
METAR KNYL 291557Z 36006KT 10SM FEW040 BKN120 OVC200 18/09 A3008 RMK AO2 SLP183 T01780089

More Conditions Fewer Conditions

Pressure 30.07 in
Visibility 10.0 miles
Clouds Few 4000 ft
Mostly Cloudy 12000 ft
Overcast 20000 ft
Dew Point 48 °F
Humidity 56%
Rainfall 0.00 in
Snow Depth Not available.
UV 0 out of 12
Pollen 5.70 out of 12
Air Quality Not available.
Flu Activity Not available.
METAR KNYL 291557Z 36006KT 10SM FEW040 BKN120 OVC200 18/09 A3008 RMK AO2 SLP183 T01780089

More Conditions Fewer Conditions

10-Day Weather Forecast

Almanac

Astronomy

Jan. 29, 2015 Rise Set
Actual Time
Civil Twilight
Nautical Twilight
Astronomical Twilight
Moon
Length of Visible Light
Length of Day
Tomorrow will be .
, % of the Moon is Illuminated

Today's Extremes

State Highs State Lows

Community

WunderPhotos

Upload Photos

1,791,466 photos uploaded!

WunderBlogs® & News

Nearby

Air Quality

  Air Quality AQ Index Pollutant
Not available.

Snow Depth

Station Depth Elevation

Earthquake Activity

City Distance Mag. Time & Date
Minimum magnitude displayed is 2.5.

Coastal Water Temperatures

Place Temperature

Nearby Weather Stations